sensor_id;sensor_type;location;lat;lon;timestamp;P1;durP1;ratioP1;P2;durP2;ratioP2
55706;SDS011;41608;45.384;20.394;2022-12-07T00:02:23;295.85;;;66.13;;
55706;SDS011;41608;45.384;20.394;2022-12-07T00:04:49;171.43;;;48.08;;
55706;SDS011;41608;45.384;20.394;2022-12-07T00:07:15;175.52;;;48.05;;
55706;SDS011;41608;45.384;20.394;2022-12-07T00:09:41;222.18;;;66.63;;
55706;SDS011;41608;45.384;20.394;2022-12-07T00:12:07;184.70;;;60.80;;
55706;SDS011;41608;45.384;20.394;2022-12-07T00:14:34;227.43;;;70.35;;
55706;SDS011;41608;45.384;20.394;2022-12-07T00:17:00;221.02;;;65.60;;
55706;SDS011;41608;45.384;20.394;2022-12-07T00:19:26;168.93;;;56.95;;
55706;SDS011;41608;45.384;20.394;2022-12-07T00:21:52;142.27;;;49.30;;
55706;SDS011;41608;45.384;20.394;2022-12-07T00:24:18;130.73;;;50.65;;
55706;SDS011;41608;45.384;20.394;2022-12-07T00:26:44;148.90;;;51.08;;
55706;SDS011;41608;45.384;20.394;2022-12-07T00:29:17;133.13;;;50.20;;
55706;SDS011;41608;45.384;20.394;2022-12-07T00:31:43;152.23;;;44.95;;
55706;SDS011;41608;45.384;20.394;2022-12-07T00:34:14;208.05;;;53.70;;
55706;SDS011;41608;45.384;20.394;2022-12-07T00:36:40;191.75;;;54.47;;
55706;SDS011;41608;45.384;20.394;2022-12-07T00:39:06;160.90;;;52.55;;
55706;SDS011;41608;45.384;20.394;2022-12-07T00:41:33;185.98;;;57.22;;
55706;SDS011;41608;45.384;20.394;2022-12-07T00:43:59;207.57;;;52.83;;
55706;SDS011;41608;45.384;20.394;2022-12-07T00:46:26;96.35;;;39.55;;
55706;SDS011;41608;45.384;20.394;2022-12-07T00:48:52;90.95;;;35.95;;
55706;SDS011;41608;45.384;20.394;2022-12-07T00:51:19;91.60;;;35.85;;
55706;SDS011;41608;45.384;20.394;2022-12-07T00:53:46;101.57;;;37.92;;
55706;SDS011;41608;45.384;20.394;2022-12-07T00:56:12;88.40;;;33.95;;
55706;SDS011;41608;45.384;20.394;2022-12-07T00:58:39;71.03;;;32.03;;
55706;SDS011;41608;45.384;20.394;2022-12-07T01:01:06;99.38;;;30.02;;
55706;SDS011;41608;45.384;20.394;2022-12-07T01:03:32;59.65;;;25.85;;
55706;SDS011;41608;45.384;20.394;2022-12-07T01:05:58;61.53;;;26.88;;
55706;SDS011;41608;45.384;20.394;2022-12-07T01:08:25;65.70;;;28.33;;
55706;SDS011;41608;45.384;20.394;2022-12-07T01:11:01;66.95;;;30.98;;
55706;SDS011;41608;45.384;20.394;2022-12-07T01:13:28;40.40;;;23.15;;
55706;SDS011;41608;45.384;20.394;2022-12-07T01:15:56;65.90;;;31.48;;
55706;SDS011;41608;45.384;20.394;2022-12-07T01:18:23;58.33;;;29.73;;
55706;SDS011;41608;45.384;20.394;2022-12-07T01:21:02;55.83;;;25.08;;
55706;SDS011;41608;45.384;20.394;2022-12-07T01:23:29;60.60;;;30.85;;
55706;SDS011;41608;45.384;20.394;2022-12-07T01:25:58;47.47;;;26.60;;
55706;SDS011;41608;45.384;20.394;2022-12-07T01:28:25;44.42;;;24.80;;
55706;SDS011;41608;45.384;20.394;2022-12-07T01:30:58;56.45;;;25.00;;
55706;SDS011;41608;45.384;20.394;2022-12-07T01:33:24;41.33;;;22.17;;
55706;SDS011;41608;45.384;20.394;2022-12-07T01:35:52;54.25;;;25.27;;
55706;SDS011;41608;45.384;20.394;2022-12-07T01:38:18;48.65;;;25.00;;
55706;SDS011;41608;45.384;20.394;2022-12-07T01:40:44;44.08;;;25.50;;
55706;SDS011;41608;45.384;20.394;2022-12-07T01:43:14;46.00;;;28.67;;
55706;SDS011;41608;45.384;20.394;2022-12-07T01:45:43;61.92;;;34.15;;
55706;SDS011;41608;45.384;20.394;2022-12-07T01:48:09;42.55;;;27.15;;
55706;SDS011;41608;45.384;20.394;2022-12-07T01:50:36;56.45;;;32.55;;
55706;SDS011;41608;45.384;20.394;2022-12-07T01:53:04;55.97;;;31.38;;
55706;SDS011;41608;45.384;20.394;2022-12-07T01:55:32;46.15;;;27.98;;
55706;SDS011;41608;45.384;20.394;2022-12-07T01:57:58;41.45;;;26.48;;
55706;SDS011;41608;45.384;20.394;2022-12-07T02:00:24;36.78;;;25.27;;
55706;SDS011;41608;45.384;20.394;2022-12-07T02:05:46;39.15;;;26.13;;
55706;SDS011;41608;45.384;20.394;2022-12-07T02:08:12;40.33;;;26.23;;
55706;SDS011;41608;45.384;20.394;2022-12-07T02:10:39;38.83;;;25.13;;
55706;SDS011;41608;45.384;20.394;2022-12-07T02:13:12;40.30;;;26.77;;
55706;SDS011;41608;45.384;20.394;2022-12-07T02:29:27;40.33;;;24.92;;
55706;SDS011;41608;45.384;20.394;2022-12-07T02:32:03;34.65;;;24.23;;
55706;SDS011;41608;45.384;20.394;2022-12-07T02:35:05;37.90;;;26.20;;
55706;SDS011;41608;45.384;20.394;2022-12-07T02:40:28;40.83;;;24.30;;
55706;SDS011;41608;45.384;20.394;2022-12-07T02:45:55;32.70;;;21.98;;
55706;SDS011;41608;45.384;20.394;2022-12-07T02:48:22;42.30;;;23.92;;
55706;SDS011;41608;45.384;20.394;2022-12-07T02:50:49;35.00;;;23.70;;
55706;SDS011;41608;45.384;20.394;2022-12-07T02:53:35;31.63;;;20.83;;
55706;SDS011;41608;45.384;20.394;2022-12-07T02:56:16;40.92;;;25.08;;
55706;SDS011;41608;45.384;20.394;2022-12-07T02:59:11;37.60;;;22.52;;
55706;SDS011;41608;45.384;20.394;2022-12-07T03:06:39;37.25;;;24.38;;
55706;SDS011;41608;45.384;20.394;2022-12-07T03:09:22;36.38;;;22.58;;
55706;SDS011;41608;45.384;20.394;2022-12-07T03:11:52;36.55;;;24.00;;
55706;SDS011;41608;45.384;20.394;2022-12-07T03:14:22;38.55;;;24.38;;
55706;SDS011;41608;45.384;20.394;2022-12-07T03:19:31;41.85;;;27.05;;
55706;SDS011;41608;45.384;20.394;2022-12-07T03:22:08;38.35;;;24.80;;
55706;SDS011;41608;45.384;20.394;2022-12-07T03:24:36;37.28;;;23.52;;
55706;SDS011;41608;45.384;20.394;2022-12-07T03:27:04;41.15;;;24.77;;
55706;SDS011;41608;45.384;20.394;2022-12-07T03:29:37;42.95;;;24.33;;
55706;SDS011;41608;45.384;20.394;2022-12-07T03:32:13;43.78;;;27.02;;
55706;SDS011;41608;45.384;20.394;2022-12-07T03:37:12;42.30;;;24.35;;
55706;SDS011;41608;45.384;20.394;2022-12-07T03:39:51;37.25;;;24.90;;
55706;SDS011;41608;45.384;20.394;2022-12-07T03:42:18;35.33;;;22.92;;
55706;SDS011;41608;45.384;20.394;2022-12-07T03:44:44;39.80;;;24.73;;
55706;SDS011;41608;45.384;20.394;2022-12-07T03:47:12;46.28;;;26.50;;
55706;SDS011;41608;45.384;20.394;2022-12-07T03:49:44;40.20;;;26.10;;
55706;SDS011;41608;45.384;20.394;2022-12-07T03:55:05;42.03;;;25.70;;
55706;SDS011;41608;45.384;20.394;2022-12-07T03:57:32;43.10;;;25.88;;
55706;SDS011;41608;45.384;20.394;2022-12-07T03:59:59;43.88;;;27.13;;
55706;SDS011;41608;45.384;20.394;2022-12-07T04:02:26;41.25;;;26.95;;
55706;SDS011;41608;45.384;20.394;2022-12-07T04:04:52;37.95;;;25.73;;
55706;SDS011;41608;45.384;20.394;2022-12-07T04:07:18;44.80;;;28.10;;
55706;SDS011;41608;45.384;20.394;2022-12-07T04:09:45;51.95;;;28.35;;
55706;SDS011;41608;45.384;20.394;2022-12-07T04:12:11;48.85;;;29.02;;
55706;SDS011;41608;45.384;20.394;2022-12-07T04:14:37;39.78;;;25.13;;
55706;SDS011;41608;45.384;20.394;2022-12-07T04:17:03;38.83;;;26.08;;
55706;SDS011;41608;45.384;20.394;2022-12-07T04:19:30;41.72;;;27.38;;
55706;SDS011;41608;45.384;20.394;2022-12-07T04:21:57;41.55;;;27.58;;
55706;SDS011;41608;45.384;20.394;2022-12-07T04:24:23;44.90;;;27.02;;
55706;SDS011;41608;45.384;20.394;2022-12-07T04:26:50;43.05;;;25.45;;
55706;SDS011;41608;45.384;20.394;2022-12-07T04:29:16;43.53;;;28.42;;
55706;SDS011;41608;45.384;20.394;2022-12-07T04:31:42;46.80;;;27.23;;
55706;SDS011;41608;45.384;20.394;2022-12-07T04:34:09;36.50;;;25.33;;
55706;SDS011;41608;45.384;20.394;2022-12-07T04:36:35;38.08;;;24.27;;
55706;SDS011;41608;45.384;20.394;2022-12-07T04:39:01;46.15;;;26.48;;
55706;SDS011;41608;45.384;20.394;2022-12-07T04:41:27;45.25;;;27.05;;
55706;SDS011;41608;45.384;20.394;2022-12-07T04:43:54;47.90;;;27.65;;
55706;SDS011;41608;45.384;20.394;2022-12-07T04:46:21;42.33;;;25.75;;
55706;SDS011;41608;45.384;20.394;2022-12-07T04:48:47;46.38;;;29.00;;
55706;SDS011;41608;45.384;20.394;2022-12-07T04:51:14;41.60;;;25.80;;
55706;SDS011;41608;45.384;20.394;2022-12-07T04:53:41;48.35;;;27.08;;
55706;SDS011;41608;45.384;20.394;2022-12-07T04:56:07;45.33;;;26.60;;
55706;SDS011;41608;45.384;20.394;2022-12-07T04:58:33;47.20;;;28.33;;
55706;SDS011;41608;45.384;20.394;2022-12-07T05:01:00;49.55;;;29.65;;
55706;SDS011;41608;45.384;20.394;2022-12-07T05:03:26;46.83;;;29.30;;
55706;SDS011;41608;45.384;20.394;2022-12-07T05:05:52;46.50;;;30.58;;
55706;SDS011;41608;45.384;20.394;2022-12-07T05:08:18;45.28;;;28.75;;
55706;SDS011;41608;45.384;20.394;2022-12-07T05:10:44;42.78;;;27.05;;
55706;SDS011;41608;45.384;20.394;2022-12-07T05:13:10;46.35;;;30.10;;
55706;SDS011;41608;45.384;20.394;2022-12-07T05:15:36;41.50;;;28.17;;
55706;SDS011;41608;45.384;20.394;2022-12-07T05:18:02;44.65;;;28.10;;
55706;SDS011;41608;45.384;20.394;2022-12-07T05:20:28;38.85;;;24.92;;
55706;SDS011;41608;45.384;20.394;2022-12-07T05:22:54;40.00;;;25.50;;
55706;SDS011;41608;45.384;20.394;2022-12-07T05:25:20;40.58;;;25.55;;
55706;SDS011;41608;45.384;20.394;2022-12-07T05:27:46;41.63;;;25.30;;
55706;SDS011;41608;45.384;20.394;2022-12-07T05:30:12;38.78;;;26.15;;
55706;SDS011;41608;45.384;20.394;2022-12-07T05:32:38;42.53;;;25.42;;
55706;SDS011;41608;45.384;20.394;2022-12-07T05:35:05;43.08;;;26.27;;
55706;SDS011;41608;45.384;20.394;2022-12-07T05:37:31;43.88;;;27.27;;
55706;SDS011;41608;45.384;20.394;2022-12-07T05:39:57;40.38;;;28.00;;
55706;SDS011;41608;45.384;20.394;2022-12-07T05:42:23;46.13;;;26.88;;
55706;SDS011;41608;45.384;20.394;2022-12-07T05:44:49;50.17;;;31.40;;
55706;SDS011;41608;45.384;20.394;2022-12-07T05:47:15;54.60;;;31.23;;
55706;SDS011;41608;45.384;20.394;2022-12-07T05:49:41;44.80;;;30.75;;
55706;SDS011;41608;45.384;20.394;2022-12-07T05:52:07;46.67;;;29.15;;
55706;SDS011;41608;45.384;20.394;2022-12-07T05:54:34;49.55;;;27.55;;
55706;SDS011;41608;45.384;20.394;2022-12-07T05:57:00;46.58;;;28.02;;
55706;SDS011;41608;45.384;20.394;2022-12-07T05:59:26;44.88;;;26.63;;
55706;SDS011;41608;45.384;20.394;2022-12-07T06:01:59;46.30;;;27.90;;
55706;SDS011;41608;45.384;20.394;2022-12-07T06:04:27;43.33;;;29.23;;
55706;SDS011;41608;45.384;20.394;2022-12-07T06:06:54;41.70;;;27.52;;
55706;SDS011;41608;45.384;20.394;2022-12-07T06:09:20;47.55;;;28.33;;
55706;SDS011;41608;45.384;20.394;2022-12-07T06:11:47;46.30;;;28.70;;
55706;SDS011;41608;45.384;20.394;2022-12-07T06:14:32;43.92;;;27.60;;
55706;SDS011;41608;45.384;20.394;2022-12-07T06:16:58;45.75;;;30.23;;
55706;SDS011;41608;45.384;20.394;2022-12-07T06:19:24;50.28;;;30.70;;
55706;SDS011;41608;45.384;20.394;2022-12-07T06:21:51;49.50;;;32.53;;
55706;SDS011;41608;45.384;20.394;2022-12-07T06:24:17;50.72;;;33.72;;
55706;SDS011;41608;45.384;20.394;2022-12-07T06:26:44;44.67;;;29.63;;
55706;SDS011;41608;45.384;20.394;2022-12-07T06:29:10;42.72;;;26.95;;
55706;SDS011;41608;45.384;20.394;2022-12-07T06:31:36;45.92;;;28.60;;
55706;SDS011;41608;45.384;20.394;2022-12-07T06:34:04;48.67;;;32.25;;
55706;SDS011;41608;45.384;20.394;2022-12-07T06:36:30;47.83;;;29.63;;
55706;SDS011;41608;45.384;20.394;2022-12-07T06:38:56;45.10;;;28.63;;
55706;SDS011;41608;45.384;20.394;2022-12-07T06:41:23;45.15;;;28.63;;
55706;SDS011;41608;45.384;20.394;2022-12-07T06:43:49;48.60;;;28.60;;
55706;SDS011;41608;45.384;20.394;2022-12-07T06:46:15;48.38;;;31.38;;
55706;SDS011;41608;45.384;20.394;2022-12-07T06:48:42;48.22;;;27.52;;
55706;SDS011;41608;45.384;20.394;2022-12-07T06:51:08;45.47;;;28.27;;
55706;SDS011;41608;45.384;20.394;2022-12-07T06:53:35;47.25;;;28.58;;
55706;SDS011;41608;45.384;20.394;2022-12-07T06:56:01;60.92;;;37.05;;
55706;SDS011;41608;45.384;20.394;2022-12-07T06:58:27;62.33;;;36.42;;
55706;SDS011;41608;45.384;20.394;2022-12-07T07:00:53;66.70;;;38.70;;
55706;SDS011;41608;45.384;20.394;2022-12-07T07:03:20;42.08;;;28.27;;
55706;SDS011;41608;45.384;20.394;2022-12-07T07:05:46;44.50;;;25.95;;
55706;SDS011;41608;45.384;20.394;2022-12-07T07:08:12;42.50;;;25.02;;
55706;SDS011;41608;45.384;20.394;2022-12-07T07:10:39;39.33;;;24.88;;
55706;SDS011;41608;45.384;20.394;2022-12-07T07:13:05;38.33;;;23.60;;
55706;SDS011;41608;45.384;20.394;2022-12-07T07:15:31;36.53;;;22.10;;
55706;SDS011;41608;45.384;20.394;2022-12-07T07:17:58;36.75;;;23.70;;
55706;SDS011;41608;45.384;20.394;2022-12-07T07:20:24;35.17;;;22.60;;
55706;SDS011;41608;45.384;20.394;2022-12-07T07:22:50;34.90;;;23.65;;
55706;SDS011;41608;45.384;20.394;2022-12-07T07:25:19;36.90;;;20.25;;
55706;SDS011;41608;45.384;20.394;2022-12-07T07:27:45;36.50;;;21.75;;
55706;SDS011;41608;45.384;20.394;2022-12-07T07:30:11;34.47;;;21.20;;
55706;SDS011;41608;45.384;20.394;2022-12-07T07:32:37;41.97;;;26.33;;
55706;SDS011;41608;45.384;20.394;2022-12-07T07:35:03;40.47;;;23.27;;
55706;SDS011;41608;45.384;20.394;2022-12-07T07:37:30;39.50;;;25.77;;
55706;SDS011;41608;45.384;20.394;2022-12-07T07:39:56;35.17;;;19.40;;
55706;SDS011;41608;45.384;20.394;2022-12-07T07:42:22;47.47;;;27.02;;
55706;SDS011;41608;45.384;20.394;2022-12-07T07:44:48;62.45;;;34.60;;
55706;SDS011;41608;45.384;20.394;2022-12-07T07:47:15;46.35;;;27.23;;
55706;SDS011;41608;45.384;20.394;2022-12-07T07:49:41;41.33;;;21.55;;
55706;SDS011;41608;45.384;20.394;2022-12-07T07:52:07;36.80;;;23.45;;
55706;SDS011;41608;45.384;20.394;2022-12-07T07:54:33;42.92;;;28.00;;
55706;SDS011;41608;45.384;20.394;2022-12-07T07:56:59;40.40;;;22.80;;
55706;SDS011;41608;45.384;20.394;2022-12-07T07:59:26;42.22;;;24.05;;
55706;SDS011;41608;45.384;20.394;2022-12-07T08:01:52;43.83;;;25.90;;
55706;SDS011;41608;45.384;20.394;2022-12-07T08:04:18;52.47;;;30.20;;
55706;SDS011;41608;45.384;20.394;2022-12-07T08:06:44;50.92;;;27.95;;
55706;SDS011;41608;45.384;20.394;2022-12-07T08:09:10;52.92;;;30.83;;
55706;SDS011;41608;45.384;20.394;2022-12-07T08:11:36;48.25;;;28.42;;
55706;SDS011;41608;45.384;20.394;2022-12-07T08:14:02;41.58;;;24.88;;
55706;SDS011;41608;45.384;20.394;2022-12-07T08:16:28;35.22;;;21.42;;
55706;SDS011;41608;45.384;20.394;2022-12-07T08:18:54;39.63;;;22.95;;
55706;SDS011;41608;45.384;20.394;2022-12-07T08:21:21;36.88;;;22.17;;
55706;SDS011;41608;45.384;20.394;2022-12-07T08:23:47;49.05;;;26.38;;
55706;SDS011;41608;45.384;20.394;2022-12-07T08:26:14;40.60;;;24.10;;
55706;SDS011;41608;45.384;20.394;2022-12-07T08:28:41;42.58;;;25.23;;
55706;SDS011;41608;45.384;20.394;2022-12-07T08:31:08;44.90;;;25.70;;
55706;SDS011;41608;45.384;20.394;2022-12-07T08:33:35;45.58;;;26.88;;
55706;SDS011;41608;45.384;20.394;2022-12-07T08:36:03;41.47;;;26.67;;
55706;SDS011;41608;45.384;20.394;2022-12-07T08:38:29;35.05;;;22.38;;
55706;SDS011;41608;45.384;20.394;2022-12-07T08:40:56;35.97;;;22.17;;
55706;SDS011;41608;45.384;20.394;2022-12-07T08:43:22;31.70;;;18.48;;
55706;SDS011;41608;45.384;20.394;2022-12-07T08:45:50;46.25;;;23.48;;
55706;SDS011;41608;45.384;20.394;2022-12-07T08:48:17;30.48;;;19.77;;
55706;SDS011;41608;45.384;20.394;2022-12-07T08:50:47;31.05;;;19.77;;
55706;SDS011;41608;45.384;20.394;2022-12-07T08:53:13;33.17;;;20.05;;
55706;SDS011;41608;45.384;20.394;2022-12-07T08:55:39;35.38;;;22.88;;
55706;SDS011;41608;45.384;20.394;2022-12-07T08:58:05;36.33;;;23.90;;
55706;SDS011;41608;45.384;20.394;2022-12-07T09:00:31;29.00;;;20.65;;
55706;SDS011;41608;45.384;20.394;2022-12-07T09:02:57;36.28;;;22.85;;
55706;SDS011;41608;45.384;20.394;2022-12-07T09:05:23;38.65;;;23.88;;
55706;SDS011;41608;45.384;20.394;2022-12-07T09:07:51;38.30;;;25.27;;
55706;SDS011;41608;45.384;20.394;2022-12-07T09:10:18;40.88;;;25.00;;
55706;SDS011;41608;45.384;20.394;2022-12-07T09:12:44;39.13;;;24.88;;
55706;SDS011;41608;45.384;20.394;2022-12-07T09:15:10;33.83;;;24.13;;
55706;SDS011;41608;45.384;20.394;2022-12-07T09:17:36;44.38;;;23.30;;
55706;SDS011;41608;45.384;20.394;2022-12-07T09:20:04;39.95;;;23.40;;
55706;SDS011;41608;45.384;20.394;2022-12-07T09:22:31;48.28;;;27.80;;
55706;SDS011;41608;45.384;20.394;2022-12-07T09:24:57;42.55;;;25.48;;
55706;SDS011;41608;45.384;20.394;2022-12-07T09:27:27;39.47;;;27.13;;
55706;SDS011;41608;45.384;20.394;2022-12-07T09:29:54;38.20;;;24.05;;
55706;SDS011;41608;45.384;20.394;2022-12-07T09:32:20;39.72;;;24.80;;
55706;SDS011;41608;45.384;20.394;2022-12-07T09:34:46;37.10;;;21.52;;
55706;SDS011;41608;45.384;20.394;2022-12-07T09:37:12;36.85;;;22.65;;
55706;SDS011;41608;45.384;20.394;2022-12-07T09:39:38;35.60;;;23.13;;
55706;SDS011;41608;45.384;20.394;2022-12-07T09:42:05;30.65;;;19.95;;
55706;SDS011;41608;45.384;20.394;2022-12-07T09:44:32;31.15;;;19.77;;
55706;SDS011;41608;45.384;20.394;2022-12-07T09:46:58;29.42;;;18.85;;
55706;SDS011;41608;45.384;20.394;2022-12-07T09:49:25;28.73;;;20.48;;
55706;SDS011;41608;45.384;20.394;2022-12-07T09:52:01;28.10;;;18.63;;
55706;SDS011;41608;45.384;20.394;2022-12-07T09:54:27;31.05;;;19.02;;
55706;SDS011;41608;45.384;20.394;2022-12-07T09:56:54;25.80;;;18.85;;
55706;SDS011;41608;45.384;20.394;2022-12-07T09:59:20;28.98;;;18.10;;
55706;SDS011;41608;45.384;20.394;2022-12-07T10:01:47;26.10;;;18.10;;
55706;SDS011;41608;45.384;20.394;2022-12-07T10:04:24;26.75;;;16.38;;
55706;SDS011;41608;45.384;20.394;2022-12-07T10:06:51;28.05;;;17.02;;
55706;SDS011;41608;45.384;20.394;2022-12-07T10:09:21;24.83;;;15.43;;
55706;SDS011;41608;45.384;20.394;2022-12-07T10:14:29;21.88;;;14.02;;
55706;SDS011;41608;45.384;20.394;2022-12-07T10:16:56;24.02;;;15.20;;
55706;SDS011;41608;45.384;20.394;2022-12-07T10:19:24;20.80;;;14.95;;
55706;SDS011;41608;45.384;20.394;2022-12-07T10:22:00;25.65;;;15.80;;
55706;SDS011;41608;45.384;20.394;2022-12-07T10:24:27;28.67;;;18.35;;
55706;SDS011;41608;45.384;20.394;2022-12-07T10:26:53;29.85;;;16.20;;
55706;SDS011;41608;45.384;20.394;2022-12-07T10:29:38;26.20;;;16.85;;
55706;SDS011;41608;45.384;20.394;2022-12-07T10:32:30;26.00;;;17.15;;
55706;SDS011;41608;45.384;20.394;2022-12-07T10:34:51;25.92;;;17.42;;
55706;SDS011;41608;45.384;20.394;2022-12-07T10:37:18;27.88;;;17.48;;
55706;SDS011;41608;45.384;20.394;2022-12-07T10:42:35;25.17;;;16.67;;
55706;SDS011;41608;45.384;20.394;2022-12-07T10:45:12;23.30;;;16.17;;
55706;SDS011;41608;45.384;20.394;2022-12-07T10:50:23;19.85;;;14.27;;
55706;SDS011;41608;45.384;20.394;2022-12-07T11:03:59;24.42;;;16.08;;
55706;SDS011;41608;45.384;20.394;2022-12-07T11:09:04;24.27;;;14.85;;
55706;SDS011;41608;45.384;20.394;2022-12-07T11:14:12;23.63;;;14.90;;
55706;SDS011;41608;45.384;20.394;2022-12-07T11:16:50;15.63;;;11.43;;
55706;SDS011;41608;45.384;20.394;2022-12-07T11:19:30;18.30;;;13.20;;
55706;SDS011;41608;45.384;20.394;2022-12-07T11:27:18;22.95;;;13.13;;
55706;SDS011;41608;45.384;20.394;2022-12-07T11:32:17;19.83;;;13.30;;
55706;SDS011;41608;45.384;20.394;2022-12-07T11:37:27;20.90;;;14.65;;
55706;SDS011;41608;45.384;20.394;2022-12-07T11:39:55;22.35;;;13.82;;
55706;SDS011;41608;45.384;20.394;2022-12-07T11:42:27;22.35;;;13.43;;
55706;SDS011;41608;45.384;20.394;2022-12-07T11:44:57;25.50;;;14.90;;
55706;SDS011;41608;45.384;20.394;2022-12-07T11:47:28;23.83;;;12.65;;
55706;SDS011;41608;45.384;20.394;2022-12-07T11:50:00;22.02;;;14.88;;
55706;SDS011;41608;45.384;20.394;2022-12-07T11:52:30;23.25;;;14.18;;
55706;SDS011;41608;45.384;20.394;2022-12-07T11:54:56;17.30;;;11.40;;
55706;SDS011;41608;45.384;20.394;2022-12-07T11:57:37;18.65;;;12.23;;
55706;SDS011;41608;45.384;20.394;2022-12-07T12:00:06;17.67;;;12.07;;
55706;SDS011;41608;45.384;20.394;2022-12-07T12:02:43;18.42;;;13.50;;
55706;SDS011;41608;45.384;20.394;2022-12-07T12:07:39;17.63;;;12.38;;
55706;SDS011;41608;45.384;20.394;2022-12-07T12:10:18;15.55;;;11.68;;
55706;SDS011;41608;45.384;20.394;2022-12-07T12:15:55;22.73;;;11.20;;
55706;SDS011;41608;45.384;20.394;2022-12-07T12:18:31;22.80;;;13.43;;
55706;SDS011;41608;45.384;20.394;2022-12-07T12:21:04;18.83;;;12.13;;
55706;SDS011;41608;45.384;20.394;2022-12-07T12:26:03;18.73;;;13.80;;
55706;SDS011;41608;45.384;20.394;2022-12-07T12:28:33;18.88;;;12.48;;
55706;SDS011;41608;45.384;20.394;2022-12-07T12:33:30;22.95;;;15.23;;
55706;SDS011;41608;45.384;20.394;2022-12-07T12:38:48;23.02;;;15.15;;
55706;SDS011;41608;45.384;20.394;2022-12-07T12:44:00;24.25;;;13.88;;
55706;SDS011;41608;45.384;20.394;2022-12-07T12:54:29;25.30;;;15.55;;
55706;SDS011;41608;45.384;20.394;2022-12-07T12:59:22;21.85;;;14.30;;
55706;SDS011;41608;45.384;20.394;2022-12-07T13:02:08;30.67;;;15.48;;
55706;SDS011;41608;45.384;20.394;2022-12-07T13:04:39;24.65;;;15.43;;
55706;SDS011;41608;45.384;20.394;2022-12-07T13:07:10;27.73;;;14.95;;
55706;SDS011;41608;45.384;20.394;2022-12-07T13:09:36;25.88;;;16.25;;
55706;SDS011;41608;45.384;20.394;2022-12-07T13:12:10;23.25;;;16.33;;
55706;SDS011;41608;45.384;20.394;2022-12-07T13:17:10;23.73;;;16.42;;
55706;SDS011;41608;45.384;20.394;2022-12-07T13:25:17;26.23;;;16.33;;
55706;SDS011;41608;45.384;20.394;2022-12-07T13:27:48;27.48;;;16.25;;
55706;SDS011;41608;45.384;20.394;2022-12-07T13:30:18;30.40;;;18.75;;
55706;SDS011;41608;45.384;20.394;2022-12-07T13:32:52;29.88;;;17.25;;
55706;SDS011;41608;45.384;20.394;2022-12-07T13:37:57;30.13;;;18.55;;
55706;SDS011;41608;45.384;20.394;2022-12-07T13:40:23;27.15;;;17.65;;
55706;SDS011;41608;45.384;20.394;2022-12-07T13:43:02;24.80;;;16.95;;
55706;SDS011;41608;45.384;20.394;2022-12-07T13:45:32;27.08;;;16.75;;
55706;SDS011;41608;45.384;20.394;2022-12-07T13:51:00;28.73;;;18.00;;
55706;SDS011;41608;45.384;20.394;2022-12-07T13:53:26;31.25;;;20.85;;
55706;SDS011;41608;45.384;20.394;2022-12-07T13:55:58;31.80;;;17.42;;
55706;SDS011;41608;45.384;20.394;2022-12-07T13:58:25;30.30;;;18.95;;
55706;SDS011;41608;45.384;20.394;2022-12-07T14:00:52;39.10;;;23.67;;
55706;SDS011;41608;45.384;20.394;2022-12-07T14:03:22;33.60;;;20.70;;
55706;SDS011;41608;45.384;20.394;2022-12-07T14:06:02;38.53;;;25.23;;
55706;SDS011;41608;45.384;20.394;2022-12-07T14:08:29;33.50;;;21.75;;
55706;SDS011;41608;45.384;20.394;2022-12-07T14:10:56;43.28;;;20.83;;
55706;SDS011;41608;45.384;20.394;2022-12-07T14:15:52;33.33;;;25.65;;
55706;SDS011;41608;45.384;20.394;2022-12-07T14:18:25;36.95;;;24.77;;
55706;SDS011;41608;45.384;20.394;2022-12-07T14:21:02;32.35;;;21.98;;
55706;SDS011;41608;45.384;20.394;2022-12-07T14:23:28;31.95;;;21.60;;
55706;SDS011;41608;45.384;20.394;2022-12-07T14:26:03;32.47;;;23.58;;
55706;SDS011;41608;45.384;20.394;2022-12-07T14:28:34;37.85;;;26.08;;
55706;SDS011;41608;45.384;20.394;2022-12-07T14:31:01;39.92;;;28.63;;
55706;SDS011;41608;45.384;20.394;2022-12-07T14:33:27;38.10;;;25.27;;
55706;SDS011;41608;45.384;20.394;2022-12-07T14:35:53;37.10;;;23.67;;
55706;SDS011;41608;45.384;20.394;2022-12-07T14:38:21;35.03;;;24.33;;
55706;SDS011;41608;45.384;20.394;2022-12-07T14:40:47;36.88;;;23.00;;
55706;SDS011;41608;45.384;20.394;2022-12-07T14:43:15;36.03;;;24.30;;
55706;SDS011;41608;45.384;20.394;2022-12-07T14:45:41;39.33;;;25.20;;
55706;SDS011;41608;45.384;20.394;2022-12-07T14:48:09;44.40;;;28.23;;
55706;SDS011;41608;45.384;20.394;2022-12-07T14:50:39;50.55;;;30.15;;
55706;SDS011;41608;45.384;20.394;2022-12-07T14:53:14;46.95;;;30.45;;
55706;SDS011;41608;45.384;20.394;2022-12-07T14:55:40;45.28;;;30.00;;
55706;SDS011;41608;45.384;20.394;2022-12-07T14:58:16;36.05;;;24.88;;
55706;SDS011;41608;45.384;20.394;2022-12-07T15:00:42;39.03;;;26.35;;
55706;SDS011;41608;45.384;20.394;2022-12-07T15:03:09;36.63;;;22.67;;
55706;SDS011;41608;45.384;20.394;2022-12-07T15:05:35;31.27;;;19.80;;
55706;SDS011;41608;45.384;20.394;2022-12-07T15:08:02;31.13;;;18.85;;
55706;SDS011;41608;45.384;20.394;2022-12-07T15:10:29;28.77;;;19.80;;
55706;SDS011;41608;45.384;20.394;2022-12-07T15:13:00;32.90;;;21.77;;
55706;SDS011;41608;45.384;20.394;2022-12-07T15:15:48;54.40;;;32.72;;
55706;SDS011;41608;45.384;20.394;2022-12-07T15:31:10;31.55;;;19.35;;
55706;SDS011;41608;45.384;20.394;2022-12-07T15:36:55;28.90;;;19.88;;
55706;SDS011;41608;45.384;20.394;2022-12-07T16:07:45;30.40;;;20.77;;
55706;SDS011;41608;45.384;20.394;2022-12-07T16:16:31;35.60;;;23.67;;
55706;SDS011;41608;45.384;20.394;2022-12-07T16:19:21;34.15;;;23.23;;
55706;SDS011;41608;45.384;20.394;2022-12-07T16:47:57;48.08;;;30.80;;
55706;SDS011;41608;45.384;20.394;2022-12-07T16:50:26;52.65;;;32.42;;
55706;SDS011;41608;45.384;20.394;2022-12-07T16:52:52;54.20;;;32.33;;
55706;SDS011;41608;45.384;20.394;2022-12-07T16:55:18;49.97;;;33.88;;
55706;SDS011;41608;45.384;20.394;2022-12-07T16:57:44;53.17;;;33.53;;
55706;SDS011;41608;45.384;20.394;2022-12-07T17:00:10;46.28;;;31.45;;
55706;SDS011;41608;45.384;20.394;2022-12-07T17:02:36;50.83;;;31.92;;
55706;SDS011;41608;45.384;20.394;2022-12-07T17:05:02;54.13;;;31.35;;
55706;SDS011;41608;45.384;20.394;2022-12-07T17:07:28;46.05;;;30.15;;
55706;SDS011;41608;45.384;20.394;2022-12-07T17:09:54;42.65;;;29.05;;
55706;SDS011;41608;45.384;20.394;2022-12-07T17:12:20;41.47;;;27.50;;
55706;SDS011;41608;45.384;20.394;2022-12-07T17:14:46;41.45;;;26.45;;
55706;SDS011;41608;45.384;20.394;2022-12-07T17:17:31;39.08;;;27.98;;
55706;SDS011;41608;45.384;20.394;2022-12-07T17:19:57;43.08;;;25.00;;
55706;SDS011;41608;45.384;20.394;2022-12-07T17:22:23;35.95;;;22.85;;
55706;SDS011;41608;45.384;20.394;2022-12-07T17:24:49;35.03;;;22.58;;
55706;SDS011;41608;45.384;20.394;2022-12-07T17:27:15;37.42;;;25.00;;